createdAt,value
2018-11-23T00:00:05.360Z,1007.77
2018-11-23T00:01:05.331Z,1007.84
2018-11-23T00:02:05.329Z,1007.80
2018-11-23T00:03:05.305Z,1007.80
2018-11-23T00:04:05.297Z,1007.79
2018-11-23T00:05:05.300Z,1007.78
2018-11-23T00:06:05.292Z,1007.79
2018-11-23T00:07:05.284Z,1007.80
2018-11-23T00:08:05.254Z,1007.81
2018-11-23T00:09:05.254Z,1007.88
2018-11-23T00:10:05.244Z,1007.88
2018-11-23T00:11:05.221Z,1007.86
2018-11-23T00:12:05.228Z,1007.88
2018-11-23T00:13:05.209Z,1007.89
2018-11-23T00:14:05.211Z,1007.93
2018-11-23T00:15:05.185Z,1007.99
2018-11-23T00:16:05.213Z,1007.95
2018-11-23T00:17:05.161Z,1007.96
2018-11-23T00:18:05.179Z,1008.01
2018-11-23T00:19:05.137Z,1008.01
2018-11-23T00:20:05.125Z,1008.02
2018-11-23T00:21:05.114Z,1008.00
2018-11-23T00:22:05.105Z,1007.99
2018-11-23T00:23:05.116Z,1008.05
2018-11-23T00:24:05.104Z,1008.02
2018-11-23T00:25:05.071Z,1008.06
2018-11-23T00:26:05.068Z,1008.03
2018-11-23T00:27:05.046Z,1008.01
2018-11-23T00:28:05.038Z,1008.10
2018-11-23T00:29:05.063Z,1008.03
2018-11-23T00:30:05.021Z,1008.02
2018-11-23T00:31:05.016Z,1008.10
2018-11-23T00:32:05.011Z,1008.07
2018-11-23T00:33:04.981Z,1008.13
2018-11-23T00:34:04.977Z,1008.09
2018-11-23T00:35:04.979Z,1008.14
2018-11-23T00:36:04.982Z,1008.16
2018-11-23T00:37:04.941Z,1008.18
2018-11-23T00:38:04.969Z,1008.21
2018-11-23T00:39:04.913Z,1008.17
2018-11-23T00:40:04.909Z,1008.22
2018-11-23T00:41:04.923Z,1008.20
2018-11-23T00:42:04.882Z,1008.24
2018-11-23T00:43:04.903Z,1008.23
2018-11-23T00:44:04.873Z,1008.21
2018-11-23T00:45:04.857Z,1008.22
2018-11-23T00:46:04.838Z,1008.18
2018-11-23T00:47:04.848Z,1008.23
2018-11-23T00:48:04.817Z,1008.23
2018-11-23T00:49:04.817Z,1008.23
2018-11-23T00:50:04.804Z,1008.22
2018-11-23T00:51:04.785Z,1008.23
2018-11-23T00:52:04.795Z,1008.21
2018-11-23T00:53:04.780Z,1008.20
2018-11-23T00:54:04.750Z,1008.21
2018-11-23T00:55:04.745Z,1008.23
2018-11-23T00:56:04.733Z,1008.21
2018-11-23T00:57:04.719Z,1008.29
2018-11-23T00:58:04.729Z,1008.27
2018-11-23T00:59:04.695Z,1008.25
2018-11-23T01:00:04.698Z,1008.28
2018-11-23T01:01:04.678Z,1008.23
2018-11-23T01:02:04.663Z,1008.26
2018-11-23T01:03:04.676Z,1008.32
2018-11-23T01:04:04.657Z,1008.30
2018-11-23T01:05:04.657Z,1008.32
2018-11-23T01:06:04.619Z,1008.35
2018-11-23T01:07:04.633Z,1008.31
2018-11-23T01:08:04.614Z,1008.33
2018-11-23T01:09:04.624Z,1008.31
2018-11-23T01:10:04.589Z,1008.33
2018-11-23T01:11:04.574Z,1008.30
2018-11-23T01:12:04.558Z,1008.28
2018-11-23T01:13:04.572Z,1008.33
2018-11-23T01:14:04.553Z,1008.33
2018-11-23T01:15:04.545Z,1008.30
2018-11-23T01:16:04.540Z,1008.33
2018-11-23T01:17:04.517Z,1008.28
2018-11-23T01:18:04.498Z,1008.28
2018-11-23T01:19:04.479Z,1008.27
2018-11-23T01:20:04.486Z,1008.26
2018-11-23T01:21:04.466Z,1008.27
2018-11-23T01:22:04.454Z,1008.21
2018-11-23T01:23:04.450Z,1008.29
2018-11-23T01:24:04.423Z,1008.24
2018-11-23T01:25:04.411Z,1008.25
2018-11-23T01:26:04.417Z,1008.20
2018-11-23T01:27:04.406Z,1008.23
2018-11-23T01:28:04.401Z,1008.27
2018-11-23T01:29:04.412Z,1008.19
2018-11-23T01:30:04.385Z,1008.18
2018-11-23T01:31:04.347Z,1008.18
2018-11-23T01:32:04.354Z,1008.12
2018-11-23T01:33:04.342Z,1008.11
2018-11-23T01:34:04.329Z,1008.14
2018-11-23T01:35:04.329Z,1008.11
2018-11-23T01:36:04.295Z,1008.14
2018-11-23T01:37:04.287Z,1008.13
2018-11-23T01:38:04.268Z,1008.14
2018-11-23T01:39:04.257Z,1008.13
2018-11-23T01:40:04.252Z,1008.13
2018-11-23T01:41:04.316Z,1008.14
2018-11-23T01:42:04.265Z,1008.17
2018-11-23T01:43:04.213Z,1008.14
2018-11-23T01:44:04.207Z,1008.10
2018-11-23T01:45:04.196Z,1008.11
2018-11-23T01:46:04.186Z,1008.08
2018-11-23T01:47:04.684Z,1008.15
2018-11-23T01:48:04.171Z,1008.15
2018-11-23T01:49:04.170Z,1008.12
2018-11-23T01:50:04.139Z,1008.10
2018-11-23T01:51:04.132Z,1008.11
2018-11-23T01:52:04.120Z,1008.10
2018-11-23T01:53:04.135Z,1008.11
2018-11-23T01:54:04.089Z,1008.11
2018-11-23T01:55:04.080Z,1008.11
2018-11-23T01:56:04.074Z,1008.09
2018-11-23T01:57:04.060Z,1008.11
2018-11-23T01:58:04.070Z,1008.09
2018-11-23T01:59:04.042Z,1008.10
2018-11-23T02:00:04.075Z,1008.08
2018-11-23T02:01:04.013Z,1008.11
2018-11-23T02:02:04.057Z,1008.10
2018-11-23T02:03:03.996Z,1008.06
2018-11-23T02:04:04.009Z,1008.02
2018-11-23T02:05:03.969Z,1008.07
2018-11-23T02:06:04.001Z,1008.07
2018-11-23T02:07:03.999Z,1008.12
2018-11-23T02:08:03.946Z,1008.06
2018-11-23T02:09:03.926Z,1008.05
2018-11-23T02:10:03.930Z,1008.14
2018-11-23T02:11:03.902Z,1008.10
2018-11-23T02:12:03.918Z,1008.09
2018-11-23T02:13:03.883Z,1008.08
2018-11-23T02:14:03.874Z,1008.09
2018-11-23T02:15:03.877Z,1008.09
2018-11-23T02:16:03.850Z,1008.09
2018-11-23T02:17:03.836Z,1008.08
2018-11-23T02:18:03.833Z,1008.12
2018-11-23T02:19:03.814Z,1008.05
2018-11-23T02:20:03.818Z,1008.02
2018-11-23T02:21:03.812Z,1008.06
2018-11-23T02:22:03.807Z,1008.08
2018-11-23T02:23:03.829Z,1008.04
2018-11-23T02:24:03.761Z,1007.99
2018-11-23T02:25:03.820Z,1008.00
2018-11-23T02:26:03.734Z,1007.97
2018-11-23T02:27:03.722Z,1008.00
2018-11-23T02:28:03.729Z,1007.95
2018-11-23T02:29:03.724Z,1007.93
2018-11-23T02:30:03.721Z,1007.92
2018-11-23T02:31:03.701Z,1007.96
2018-11-23T02:32:03.667Z,1007.96
2018-11-23T02:33:03.671Z,1007.93
2018-11-23T02:34:03.666Z,1007.95
2018-11-23T02:35:03.635Z,1008.00
2018-11-23T02:36:03.624Z,1007.93
2018-11-23T02:37:03.615Z,1007.95
2018-11-23T02:38:03.604Z,1007.93
2018-11-23T02:39:03.595Z,1007.94
2018-11-23T02:40:03.626Z,1007.89
2018-11-23T02:41:03.571Z,1007.89
2018-11-23T02:42:03.573Z,1007.84
2018-11-23T02:43:03.544Z,1007.87
2018-11-23T02:44:03.553Z,1007.79
2018-11-23T02:45:03.612Z,1007.83
2018-11-23T02:46:03.515Z,1007.83
2018-11-23T02:47:03.498Z,1007.87
2018-11-23T02:48:03.520Z,1007.87
2018-11-23T02:49:03.479Z,1007.86
2018-11-23T02:50:03.471Z,1007.84
2018-11-23T02:51:03.477Z,1007.82
2018-11-23T02:52:03.448Z,1007.83
2018-11-23T02:53:03.437Z,1007.75
2018-11-23T02:54:03.435Z,1007.81
2018-11-23T02:55:03.433Z,1007.76
2018-11-23T02:56:03.407Z,1007.77
2018-11-23T02:57:03.436Z,1007.73
2018-11-23T02:58:03.394Z,1007.79
2018-11-23T02:59:03.412Z,1007.79
2018-11-23T03:00:03.360Z,1007.72
2018-11-23T03:01:03.403Z,1007.76
2018-11-23T03:02:03.351Z,1007.70
2018-11-23T03:03:03.346Z,1007.81
2018-11-23T03:04:03.342Z,1007.77
2018-11-23T03:05:03.344Z,1007.75
2018-11-23T03:06:03.290Z,1007.74
2018-11-23T03:07:03.317Z,1007.76
2018-11-23T03:08:03.285Z,1007.82
2018-11-23T03:09:03.290Z,1007.76
2018-11-23T03:10:03.252Z,1007.80
2018-11-23T03:11:03.240Z,1007.79
2018-11-23T03:12:03.228Z,1007.77
2018-11-23T03:13:03.242Z,1007.78
2018-11-23T03:14:03.245Z,1007.73
2018-11-23T03:15:03.197Z,1007.73
2018-11-23T03:16:03.188Z,1007.74
2018-11-23T03:17:03.169Z,1007.74
2018-11-23T03:18:03.168Z,1007.71
2018-11-23T03:19:03.196Z,1007.72
2018-11-23T03:20:03.161Z,1007.70
2018-11-23T03:21:03.133Z,1007.73
2018-11-23T03:22:03.122Z,1007.71
2018-11-23T03:23:03.104Z,1007.72
2018-11-23T03:24:03.093Z,1007.71
2018-11-23T03:25:03.093Z,1007.71
2018-11-23T03:26:03.096Z,1007.67
2018-11-23T03:27:03.094Z,1007.67
2018-11-23T03:28:03.053Z,1007.69
2018-11-23T03:29:03.052Z,1007.65
2018-11-23T03:30:03.033Z,1007.63
2018-11-23T03:31:03.021Z,1007.71
2018-11-23T03:32:03.034Z,1007.70
2018-11-23T03:33:02.997Z,1007.71
2018-11-23T03:34:02.992Z,1007.72
2018-11-23T03:35:03.012Z,1007.69
2018-11-23T03:36:03.028Z,1007.72
2018-11-23T03:37:02.983Z,1007.73
2018-11-23T03:38:02.997Z,1007.69
2018-11-23T03:39:02.937Z,1007.67
2018-11-23T03:40:02.917Z,1007.69
2018-11-23T03:41:02.913Z,1007.68
2018-11-23T03:42:02.905Z,1007.69
2018-11-23T03:43:02.888Z,1007.67
2018-11-23T03:44:02.904Z,1007.65
2018-11-23T03:45:02.871Z,1007.71
2018-11-23T03:46:02.860Z,1007.63
2018-11-23T03:47:02.860Z,1007.67
2018-11-23T03:48:02.846Z,1007.64
2018-11-23T03:49:02.850Z,1007.63
2018-11-23T03:50:02.821Z,1007.64
2018-11-23T03:51:02.811Z,1007.63
2018-11-23T03:52:02.794Z,1007.60
2018-11-23T03:53:02.779Z,1007.61
2018-11-23T03:54:02.821Z,1007.67
2018-11-23T03:55:02.777Z,1007.61
2018-11-23T03:56:02.766Z,1007.62
2018-11-23T03:57:02.745Z,1007.70
2018-11-23T03:58:02.724Z,1007.62
2018-11-23T03:59:02.734Z,1007.58
2018-11-23T04:00:02.700Z,1007.59
2018-11-23T04:01:02.703Z,1007.61
2018-11-23T04:02:02.698Z,1007.51
2018-11-23T04:03:02.672Z,1007.53
2018-11-23T04:04:02.715Z,1007.60
2018-11-23T04:05:02.649Z,1007.56
2018-11-23T04:06:02.644Z,1007.54
2018-11-23T04:07:02.646Z,1007.52
2018-11-23T04:08:02.629Z,1007.57
2018-11-23T04:09:02.619Z,1007.56
2018-11-23T04:10:02.601Z,1007.57
2018-11-23T04:11:02.583Z,1007.54
2018-11-23T04:12:02.590Z,1007.56
2018-11-23T04:13:02.573Z,1007.61
2018-11-23T04:14:02.551Z,1007.64
2018-11-23T04:15:02.547Z,1007.61
2018-11-23T04:16:02.534Z,1007.65
2018-11-23T04:17:02.524Z,1007.66
2018-11-23T04:18:02.534Z,1007.61
2018-11-23T04:19:02.500Z,1007.59
2018-11-23T04:20:02.504Z,1007.64
2018-11-23T04:21:02.472Z,1007.65
2018-11-23T04:22:02.460Z,1007.60
2018-11-23T04:23:02.449Z,1007.58
2018-11-23T04:24:02.462Z,1007.58
2018-11-23T04:25:02.442Z,1007.62
2018-11-23T04:26:02.426Z,1007.64
2018-11-23T04:27:02.404Z,1007.62
2018-11-23T04:28:02.400Z,1007.59
2018-11-23T04:29:02.460Z,1007.64
2018-11-23T04:30:02.370Z,1007.62
2018-11-23T04:31:02.360Z,1007.63
2018-11-23T04:32:02.352Z,1007.57
2018-11-23T04:33:02.366Z,1007.61
2018-11-23T04:34:02.342Z,1007.56
2018-11-23T04:35:02.337Z,1007.60
2018-11-23T04:36:02.311Z,1007.61
2018-11-23T04:37:02.295Z,1007.58
2018-11-23T04:38:02.313Z,1007.60
2018-11-23T04:39:02.312Z,1007.59
2018-11-23T04:40:02.286Z,1007.58
2018-11-23T04:41:02.271Z,1007.59
2018-11-23T04:42:02.255Z,1007.56
2018-11-23T04:43:02.242Z,1007.57
2018-11-23T04:44:02.242Z,1007.55
2018-11-23T04:45:02.228Z,1007.53
2018-11-23T04:46:02.233Z,1007.51
2018-11-23T04:47:02.199Z,1007.57
2018-11-23T04:48:02.194Z,1007.55
2018-11-23T04:49:02.163Z,1007.50
2018-11-23T04:50:02.163Z,1007.55
2018-11-23T04:51:02.161Z,1007.56
2018-11-23T04:52:02.136Z,1007.56
2018-11-23T04:53:02.157Z,1007.64
2018-11-23T04:54:02.111Z,1007.57
2018-11-23T04:55:02.102Z,1007.60
2018-11-23T04:56:02.084Z,1007.60
2018-11-23T04:57:02.124Z,1007.59
2018-11-23T04:58:02.127Z,1007.63
2018-11-23T04:59:02.052Z,1007.59
2018-11-23T05:00:02.044Z,1007.60
2018-11-23T05:01:02.037Z,1007.62
2018-11-23T05:02:02.028Z,1007.63
2018-11-23T05:03:02.032Z,1007.64
2018-11-23T05:04:02.040Z,1007.63
2018-11-23T05:05:02.002Z,1007.66
2018-11-23T05:06:01.989Z,1007.63
2018-11-23T05:07:01.977Z,1007.61
2018-11-23T05:08:01.966Z,1007.64
2018-11-23T05:09:01.941Z,1007.63
2018-11-23T05:10:01.946Z,1007.62
2018-11-23T05:11:01.958Z,1007.63
2018-11-23T05:12:01.907Z,1007.65
2018-11-23T05:13:01.908Z,1007.62
2018-11-23T05:14:01.896Z,1007.66
2018-11-23T05:15:01.881Z,1007.65
2018-11-23T05:16:01.886Z,1007.62
2018-11-23T05:17:01.876Z,1007.64
2018-11-23T05:18:01.864Z,1007.66
2018-11-23T05:19:01.827Z,1007.65
2018-11-23T05:20:01.815Z,1007.62
2018-11-23T05:21:01.814Z,1007.60
2018-11-23T05:22:01.801Z,1007.62
2018-11-23T05:23:01.807Z,1007.60
2018-11-23T05:24:01.813Z,1007.62
2018-11-23T05:25:01.761Z,1007.59
2018-11-23T05:26:01.756Z,1007.61
2018-11-23T05:27:01.766Z,1007.57
2018-11-23T05:28:01.733Z,1007.57
2018-11-23T05:29:01.739Z,1007.58
2018-11-23T05:30:01.721Z,1007.57
2018-11-23T05:31:01.716Z,1007.57
2018-11-23T05:32:01.691Z,1007.47
2018-11-23T05:33:01.685Z,1007.51
2018-11-23T05:34:01.713Z,1007.52
2018-11-23T05:35:01.655Z,1007.53
2018-11-23T05:36:01.710Z,1007.52
2018-11-23T05:37:01.649Z,1007.52
2018-11-23T05:38:01.636Z,1007.49
2018-11-23T05:39:01.606Z,1007.52
2018-11-23T05:40:01.636Z,1007.48
2018-11-23T05:41:01.652Z,1007.43
2018-11-23T05:42:01.575Z,1007.43
2018-11-23T05:43:04.481Z,1007.39
2018-11-23T05:44:01.557Z,1007.41
2018-11-23T05:45:01.594Z,1007.38
2018-11-23T05:46:01.584Z,1007.39
2018-11-23T05:47:01.529Z,1007.41
2018-11-23T05:48:01.537Z,1007.42
2018-11-23T05:49:01.506Z,1007.41
2018-11-23T05:50:01.495Z,1007.41
2018-11-23T05:51:01.487Z,1007.40
2018-11-23T05:52:01.475Z,1007.33
2018-11-23T05:53:01.468Z,1007.32
2018-11-23T05:54:01.446Z,1007.36
2018-11-23T05:55:01.434Z,1007.31
2018-11-23T05:56:01.425Z,1007.34
2018-11-23T05:57:01.408Z,1007.31
2018-11-23T05:58:01.401Z,1007.32
2018-11-23T05:59:01.415Z,1007.34
2018-11-23T06:00:01.375Z,1007.35
2018-11-23T06:01:01.381Z,1007.33
2018-11-23T06:02:01.348Z,1007.37
2018-11-23T06:03:01.354Z,1007.36
2018-11-23T06:04:01.336Z,1007.34
2018-11-23T06:05:01.353Z,1007.33
2018-11-23T06:06:01.325Z,1007.35
2018-11-23T06:07:01.299Z,1007.33
2018-11-23T06:08:01.310Z,1007.29
2018-11-23T06:09:01.298Z,1007.30
2018-11-23T06:10:01.264Z,1007.34
2018-11-23T06:11:01.263Z,1007.31
2018-11-23T06:12:01.257Z,1007.25
2018-11-23T06:13:01.236Z,1007.30
2018-11-23T06:14:01.267Z,1007.30
2018-11-23T06:15:01.248Z,1007.29
2018-11-23T06:16:01.225Z,1007.29
2018-11-23T06:17:01.192Z,1007.29
2018-11-23T06:18:01.301Z,1007.30
2018-11-23T06:19:01.168Z,1007.31
2018-11-23T06:20:01.156Z,1007.30
2018-11-23T06:21:01.170Z,1007.33
2018-11-23T06:22:01.147Z,1007.29
2018-11-23T06:23:01.132Z,1007.31
2018-11-23T06:24:01.109Z,1007.30
2018-11-23T06:25:01.100Z,1007.27
2018-11-23T06:26:01.101Z,1007.30
2018-11-23T06:27:01.152Z,1007.31
2018-11-23T06:28:01.099Z,1007.30
2018-11-23T06:29:01.058Z,1007.32
2018-11-23T06:30:01.103Z,1007.35
2018-11-23T06:31:01.053Z,1007.36
2018-11-23T06:32:01.037Z,1007.36
2018-11-23T06:33:01.076Z,1007.38
2018-11-23T06:34:01.000Z,1007.35
2018-11-23T06:35:01.005Z,1007.36
2018-11-23T06:36:00.993Z,1007.38
2018-11-23T06:37:00.981Z,1007.36
2018-11-23T06:38:00.980Z,1007.37
2018-11-23T06:39:00.976Z,1007.35
2018-11-23T06:40:00.941Z,1007.40
2018-11-23T06:41:00.942Z,1007.32
2018-11-23T06:42:00.951Z,1007.37
2018-11-23T06:43:00.913Z,1007.40
2018-11-23T06:44:00.912Z,1007.38
2018-11-23T06:45:00.889Z,1007.41
2018-11-23T06:46:00.874Z,1007.45
2018-11-23T06:47:00.869Z,1007.45
2018-11-23T06:48:00.851Z,1007.47
2018-11-23T06:49:00.892Z,1007.45
2018-11-23T06:50:00.843Z,1007.44
2018-11-23T06:51:00.812Z,1007.44
2018-11-23T06:52:00.813Z,1007.43
2018-11-23T06:53:00.801Z,1007.45
2018-11-23T06:54:00.799Z,1007.45
2018-11-23T06:55:00.805Z,1007.41
2018-11-23T06:56:00.772Z,1007.44
2018-11-23T06:57:00.748Z,1007.44
2018-11-23T06:58:00.736Z,1007.47
2018-11-23T06:59:00.727Z,1007.45
2018-11-23T07:00:00.719Z,1007.50
2018-11-23T07:01:00.720Z,1007.52
2018-11-23T07:02:00.691Z,1007.53
2018-11-23T07:03:00.691Z,1007.53
2018-11-23T07:04:00.694Z,1007.59
2018-11-23T07:05:00.659Z,1007.52
2018-11-23T07:06:00.653Z,1007.54
2018-11-23T07:07:00.658Z,1007.52
2018-11-23T07:08:00.638Z,1007.54
2018-11-23T07:09:00.615Z,1007.52
2018-11-23T07:10:00.609Z,1007.51
2018-11-23T07:11:07.698Z,1007.56
2018-11-23T07:12:00.577Z,1007.56
2018-11-23T07:13:00.573Z,1007.56
2018-11-23T07:14:04.064Z,1007.51
2018-11-23T07:15:00.543Z,1007.52
2018-11-23T07:16:00.536Z,1007.54
2018-11-23T07:17:00.519Z,1007.53
2018-11-23T07:18:00.577Z,1007.57
2018-11-23T07:19:00.498Z,1007.56
2018-11-23T07:20:00.516Z,1007.54
2018-11-23T07:21:00.486Z,1007.52
2018-11-23T07:22:00.470Z,1007.54
2018-11-23T07:23:00.458Z,1007.53
2018-11-23T07:24:00.486Z,1007.51
2018-11-23T07:25:00.441Z,1007.51
2018-11-23T07:26:00.476Z,1007.52
2018-11-23T07:27:00.443Z,1007.50
2018-11-23T07:28:00.403Z,1007.49
2018-11-23T07:29:00.412Z,1007.56
2018-11-23T07:30:00.407Z,1007.54
2018-11-23T07:31:02.438Z,1007.54
2018-11-23T07:32:07.456Z,1007.55
2018-11-23T07:33:00.343Z,1007.51
2018-11-23T07:34:00.332Z,1007.48
2018-11-23T07:35:00.322Z,1007.47
2018-11-23T07:36:00.331Z,1007.48
2018-11-23T07:37:00.299Z,1007.50
2018-11-23T07:38:00.292Z,1007.50
2018-11-23T07:39:00.285Z,1007.48
2018-11-23T07:40:00.269Z,1007.49
2018-11-23T07:41:00.261Z,1007.49
2018-11-23T07:42:00.275Z,1007.47
2018-11-23T07:43:00.236Z,1007.44
2018-11-23T07:44:00.226Z,1007.45
2018-11-23T07:45:00.213Z,1007.43
2018-11-23T07:46:00.208Z,1007.45
2018-11-23T07:47:00.207Z,1007.45
2018-11-23T07:48:00.205Z,1007.44
2018-11-23T07:49:00.177Z,1007.47
2018-11-23T07:50:00.177Z,1007.43
2018-11-23T07:51:00.166Z,1007.46
2018-11-23T07:52:00.153Z,1007.43
2018-11-23T07:53:00.146Z,1007.49
2018-11-23T07:54:00.140Z,1007.45
2018-11-23T07:55:00.110Z,1007.46
2018-11-23T07:56:00.114Z,1007.50
2018-11-23T07:57:00.124Z,1007.42
2018-11-23T07:58:00.075Z,1007.47
2018-11-23T07:59:00.070Z,1007.45
2018-11-23T08:00:00.085Z,1007.47
2018-11-23T08:01:00.067Z,1007.45
2018-11-23T08:02:00.049Z,1007.45
2018-11-23T08:03:00.039Z,1007.49
2018-11-23T08:04:00.051Z,1007.50
2018-11-23T08:05:00.007Z,1007.48
2018-11-23T08:05:59.991Z,1007.45
2018-11-23T08:06:59.997Z,1007.45
2018-11-23T08:07:59.972Z,1007.44
2018-11-23T08:08:59.991Z,1007.45
2018-11-23T08:09:59.975Z,1007.42
2018-11-23T08:10:59.931Z,1007.47
2018-11-23T08:11:59.922Z,1007.49
2018-11-23T08:12:59.925Z,1007.47
2018-11-23T08:13:59.906Z,1007.52
2018-11-23T08:14:59.971Z,1007.47
2018-11-23T08:15:59.896Z,1007.50
2018-11-23T08:16:59.867Z,1007.53
2018-11-23T08:17:59.848Z,1007.47
2018-11-23T08:18:59.845Z,1007.49
2018-11-23T08:19:59.839Z,1007.49
2018-11-23T08:20:59.834Z,1007.47
2018-11-23T08:21:59.830Z,1007.48
2018-11-23T08:22:59.815Z,1007.49
2018-11-23T08:23:59.822Z,1007.48
2018-11-23T08:24:59.780Z,1007.49
2018-11-23T08:25:59.760Z,1007.52
2018-11-23T08:26:59.771Z,1007.48
2018-11-23T08:27:59.752Z,1007.45
2018-11-23T08:28:59.761Z,1007.47
2018-11-23T08:29:59.728Z,1007.45
2018-11-23T08:30:59.706Z,1007.44
2018-11-23T08:31:59.719Z,1007.42
2018-11-23T08:32:59.701Z,1007.36
2018-11-23T08:33:59.681Z,1007.30
2018-11-23T08:34:59.680Z,1007.31
2018-11-23T08:35:59.653Z,1007.35
2018-11-23T08:36:59.645Z,1007.38
2018-11-23T08:37:59.649Z,1007.33
2018-11-23T08:39:04.717Z,1007.34
2018-11-23T08:40:00.619Z,1007.34
2018-11-23T08:40:59.627Z,1007.35
2018-11-23T08:41:59.586Z,1007.35
2018-11-23T08:42:59.596Z,1007.35
2018-11-23T08:43:59.563Z,1007.38
2018-11-23T08:44:59.559Z,1007.34
2018-11-23T08:45:59.543Z,1007.36
2018-11-23T08:46:59.539Z,1007.36
2018-11-23T08:47:59.526Z,1007.33
2018-11-23T08:48:59.575Z,1007.32
2018-11-23T08:49:59.530Z,1007.31
2018-11-23T08:50:59.491Z,1007.33
2018-11-23T08:51:59.500Z,1007.26
2018-11-23T08:52:59.500Z,1007.24
2018-11-23T08:53:59.456Z,1007.29
2018-11-23T08:54:59.477Z,1007.24
2018-11-23T08:55:59.468Z,1007.27
2018-11-23T08:56:59.464Z,1007.26
2018-11-23T08:57:59.433Z,1007.22
2018-11-23T08:58:59.440Z,1007.23
2018-11-23T08:59:59.410Z,1007.23
2018-11-23T09:00:59.376Z,1007.29
2018-11-23T09:01:59.397Z,1007.32
2018-11-23T09:02:59.382Z,1007.37
2018-11-23T09:03:59.337Z,1007.47
2018-11-23T09:04:59.336Z,1007.43
2018-11-23T09:05:59.324Z,1007.44
2018-11-23T09:06:59.310Z,1007.42
2018-11-23T09:07:59.297Z,1007.40
2018-11-23T09:08:59.303Z,1007.43
2018-11-23T09:09:59.275Z,1007.42
2018-11-23T09:10:59.275Z,1007.36
2018-11-23T09:11:59.264Z,1007.40
2018-11-23T09:12:59.248Z,1007.37
2018-11-23T09:13:59.270Z,1007.41
2018-11-23T09:14:59.225Z,1007.40
2018-11-23T09:15:59.235Z,1007.47
2018-11-23T09:16:59.204Z,1007.44
2018-11-23T09:17:59.204Z,1007.45
2018-11-23T09:18:59.195Z,1007.42
2018-11-23T09:19:59.195Z,1007.39
2018-11-23T09:20:59.168Z,1007.42
2018-11-23T09:21:59.190Z,1007.34
2018-11-23T09:22:59.152Z,1007.33
2018-11-23T09:23:59.173Z,1007.29
2018-11-23T09:24:59.114Z,1007.27
2018-11-23T09:25:59.131Z,1007.26
2018-11-23T09:26:59.108Z,1007.24
2018-11-23T09:27:59.089Z,1007.25
2018-11-23T09:28:59.091Z,1007.27
2018-11-23T09:29:59.076Z,1007.29
2018-11-23T09:30:59.039Z,1007.30
2018-11-23T09:31:59.049Z,1007.27
2018-11-23T09:32:59.056Z,1007.25
2018-11-23T09:33:59.013Z,1007.26
2018-11-23T09:34:58.995Z,1007.26
2018-11-23T09:35:59.005Z,1007.26
2018-11-23T09:36:58.978Z,1007.29
2018-11-23T09:37:58.969Z,1007.27
2018-11-23T09:38:58.955Z,1007.28
2018-11-23T09:39:58.973Z,1007.28
2018-11-23T09:40:58.932Z,1007.31
2018-11-23T09:41:58.949Z,1007.27
2018-11-23T09:42:58.920Z,1007.32
2018-11-23T09:43:58.925Z,1007.29
2018-11-23T09:44:58.885Z,1007.32
2018-11-23T09:45:58.902Z,1007.30
2018-11-23T09:46:58.875Z,1007.28
2018-11-23T09:47:58.912Z,1007.28
2018-11-23T09:48:58.841Z,1007.33
2018-11-23T09:49:58.847Z,1007.35
2018-11-23T09:50:58.821Z,1007.32
2018-11-23T09:51:58.805Z,1007.31
2018-11-23T09:52:58.798Z,1007.32
2018-11-23T09:53:58.790Z,1007.34
2018-11-23T09:54:58.803Z,1007.33
2018-11-23T09:55:58.761Z,1007.36
2018-11-23T09:56:58.750Z,1007.38
2018-11-23T09:57:58.735Z,1007.33
2018-11-23T09:59:05.746Z,1007.33
2018-11-23T09:59:58.716Z,1007.29
2018-11-23T10:00:58.725Z,1007.33
2018-11-23T10:01:58.702Z,1007.28
2018-11-23T10:02:58.746Z,1007.32
2018-11-23T10:03:58.734Z,1007.29
2018-11-23T10:04:58.692Z,1007.31
2018-11-23T10:05:58.684Z,1007.29
2018-11-23T10:06:58.643Z,1007.31
2018-11-23T10:07:58.655Z,1007.33
2018-11-23T10:08:58.621Z,1007.33
2018-11-23T10:09:58.610Z,1007.30
2018-11-23T10:10:58.601Z,1007.31
2018-11-23T10:11:58.641Z,1007.35
2018-11-23T10:12:58.574Z,1007.33
2018-11-23T10:13:58.562Z,1007.32
2018-11-23T10:14:58.551Z,1007.35
2018-11-23T10:15:58.546Z,1007.30
2018-11-23T10:16:58.541Z,1007.33
2018-11-23T10:17:58.545Z,1007.33
2018-11-23T10:18:58.509Z,1007.29
2018-11-23T10:19:58.532Z,1007.26
2018-11-23T10:20:58.486Z,1007.25
2018-11-23T10:21:58.474Z,1007.24
2018-11-23T10:22:58.477Z,1007.16
2018-11-23T10:23:58.475Z,1007.10
2018-11-23T10:24:58.443Z,1007.07
2018-11-23T10:25:58.442Z,1007.06
2018-11-23T10:26:58.451Z,1007.09
2018-11-23T10:27:58.423Z,1007.09
2018-11-23T10:28:58.418Z,1007.07
2018-11-23T10:29:58.386Z,1007.06
2018-11-23T10:30:58.368Z,1007.02
2018-11-23T10:31:58.385Z,1007.01
2018-11-23T10:32:58.353Z,1007.02
2018-11-23T10:33:58.348Z,1007.00
2018-11-23T10:34:58.351Z,1007.01
2018-11-23T10:35:58.467Z,1007.02
2018-11-23T10:36:58.309Z,1007.01
2018-11-23T10:37:58.291Z,1007.01
2018-11-23T10:38:58.308Z,1006.98
2018-11-23T10:39:58.285Z,1006.99
2018-11-23T10:40:58.278Z,1006.98
2018-11-23T10:41:58.278Z,1007.00
2018-11-23T10:42:58.239Z,1006.99
2018-11-23T10:43:58.314Z,1006.94
2018-11-23T10:44:58.216Z,1006.97
2018-11-23T10:45:58.215Z,1007.00
2018-11-23T10:46:58.192Z,1006.99
2018-11-23T10:47:58.180Z,1006.94
2018-11-23T10:48:58.170Z,1006.88
2018-11-23T10:49:58.180Z,1006.89
2018-11-23T10:50:58.143Z,1006.87
2018-11-23T10:51:58.134Z,1006.86
2018-11-23T10:52:58.120Z,1006.85
2018-11-23T10:53:58.112Z,1006.82
2018-11-23T10:54:58.104Z,1006.68
2018-11-23T10:55:58.133Z,1006.71
2018-11-23T10:56:58.082Z,1006.67
2018-11-23T10:57:58.066Z,1006.64
2018-11-23T10:58:58.118Z,1006.61
2018-11-23T10:59:58.111Z,1006.59
2018-11-23T11:00:58.063Z,1006.54
2018-11-23T11:01:58.021Z,1006.55
2018-11-23T11:02:58.008Z,1006.54
2018-11-23T11:03:58.005Z,1006.51
2018-11-23T11:04:57.985Z,1006.52
2018-11-23T11:05:57.981Z,1006.55
2018-11-23T11:06:57.984Z,1006.51
2018-11-23T11:07:57.993Z,1006.57
2018-11-23T11:08:57.954Z,1006.54
2018-11-23T11:09:57.978Z,1006.52
2018-11-23T11:10:57.920Z,1006.52
2018-11-23T11:11:57.916Z,1006.55
2018-11-23T11:12:57.899Z,1006.50
2018-11-23T11:13:57.923Z,1006.51
2018-11-23T11:14:57.875Z,1006.52
2018-11-23T11:15:57.862Z,1006.50
2018-11-23T11:16:57.857Z,1006.48
2018-11-23T11:17:57.839Z,1006.49
2018-11-23T11:18:57.848Z,1006.43
2018-11-23T11:19:57.817Z,1006.43
2018-11-23T11:20:57.808Z,1006.42
2018-11-23T11:21:57.796Z,1006.39
2018-11-23T11:22:57.790Z,1006.38
2018-11-23T11:23:57.774Z,1006.36
2018-11-23T11:24:57.795Z,1006.33
2018-11-23T11:25:57.754Z,1006.29
2018-11-23T11:26:57.743Z,1006.27
2018-11-23T11:27:57.727Z,1006.30
2018-11-23T11:28:57.714Z,1006.22
2018-11-23T11:29:57.715Z,1006.28
2018-11-23T11:30:57.719Z,1006.24
2018-11-23T11:31:57.685Z,1006.32
2018-11-23T11:32:57.671Z,1006.29
2018-11-23T11:33:57.659Z,1006.27
2018-11-23T11:34:57.655Z,1006.30
2018-11-23T11:35:57.637Z,1006.22
2018-11-23T11:36:57.642Z,1006.15
2018-11-23T11:37:57.615Z,1006.22
2018-11-23T11:38:57.609Z,1006.14
2018-11-23T11:39:57.622Z,1006.16
2018-11-23T11:40:57.582Z,1006.19
2018-11-23T11:41:57.591Z,1006.22
2018-11-23T11:42:57.560Z,1006.17
2018-11-23T11:43:57.550Z,1006.18
2018-11-23T11:44:57.534Z,1006.17
2018-11-23T11:45:57.540Z,1006.18
2018-11-23T11:46:57.510Z,1006.16
2018-11-23T11:47:57.517Z,1006.13
2018-11-23T11:48:57.504Z,1006.11
2018-11-23T11:49:59.183Z,1006.10
2018-11-23T11:50:57.469Z,1006.02
2018-11-23T11:51:57.458Z,1006.06
2018-11-23T11:52:57.449Z,1006.00
2018-11-23T11:53:57.452Z,1005.95
2018-11-23T11:54:57.442Z,1005.95
2018-11-23T11:55:57.417Z,1005.93
2018-11-23T11:56:57.400Z,1005.89
2018-11-23T11:57:57.388Z,1005.91
2018-11-23T11:58:57.379Z,1005.94
2018-11-23T11:59:57.365Z,1005.91
2018-11-23T12:00:57.374Z,1005.87
2018-11-23T12:01:57.347Z,1005.90
2018-11-23T12:02:57.336Z,1005.85
2018-11-23T12:03:57.321Z,1005.85
2018-11-23T12:04:57.315Z,1005.85